sensor_id;sensor_type;location;lat;lon;timestamp;P1;durP1;ratioP1;P2;durP2;ratioP2
40939;SDS011;26666;50.156;7.700;2022-12-07T00:00:35;2.35;;;1.73;;
40939;SDS011;26666;50.156;7.700;2022-12-07T00:05:37;6.07;;;1.92;;
40939;SDS011;26666;50.156;7.700;2022-12-07T00:10:38;3.40;;;1.27;;
40939;SDS011;26666;50.156;7.700;2022-12-07T00:15:40;8.25;;;2.50;;
40939;SDS011;26666;50.156;7.700;2022-12-07T00:20:41;6.47;;;1.77;;
40939;SDS011;26666;50.156;7.700;2022-12-07T00:25:43;7.78;;;2.13;;
40939;SDS011;26666;50.156;7.700;2022-12-07T00:30:44;2.00;;;1.05;;
40939;SDS011;26666;50.156;7.700;2022-12-07T00:35:54;4.03;;;1.77;;
40939;SDS011;26666;50.156;7.700;2022-12-07T00:41:06;8.15;;;1.88;;
40939;SDS011;26666;50.156;7.700;2022-12-07T00:46:13;4.70;;;1.38;;
40939;SDS011;26666;50.156;7.700;2022-12-07T00:51:16;3.72;;;0.90;;
40939;SDS011;26666;50.156;7.700;2022-12-07T00:56:21;2.63;;;1.08;;
40939;SDS011;26666;50.156;7.700;2022-12-07T01:01:30;4.85;;;0.73;;
40939;SDS011;26666;50.156;7.700;2022-12-07T01:06:34;2.05;;;0.98;;
40939;SDS011;26666;50.156;7.700;2022-12-07T01:11:35;5.07;;;1.02;;
40939;SDS011;26666;50.156;7.700;2022-12-07T01:16:38;2.40;;;0.68;;
40939;SDS011;26666;50.156;7.700;2022-12-07T01:21:39;2.22;;;1.10;;
40939;SDS011;26666;50.156;7.700;2022-12-07T01:26:41;3.05;;;1.10;;
40939;SDS011;26666;50.156;7.700;2022-12-07T01:31:42;3.50;;;1.63;;
40939;SDS011;26666;50.156;7.700;2022-12-07T01:36:44;2.00;;;0.90;;
40939;SDS011;26666;50.156;7.700;2022-12-07T01:41:45;3.72;;;1.58;;
40939;SDS011;26666;50.156;7.700;2022-12-07T01:46:48;4.22;;;1.55;;
40939;SDS011;26666;50.156;7.700;2022-12-07T01:52:31;5.68;;;1.40;;
40939;SDS011;26666;50.156;7.700;2022-12-07T01:57:28;7.60;;;2.33;;
40939;SDS011;26666;50.156;7.700;2022-12-07T02:02:36;3.83;;;1.05;;
40939;SDS011;26666;50.156;7.700;2022-12-07T02:07:42;3.00;;;2.00;;
40939;SDS011;26666;50.156;7.700;2022-12-07T02:12:47;7.28;;;3.42;;
40939;SDS011;26666;50.156;7.700;2022-12-07T02:23:15;5.90;;;2.10;;
40939;SDS011;26666;50.156;7.700;2022-12-07T02:28:27;3.78;;;1.80;;
40939;SDS011;26666;50.156;7.700;2022-12-07T02:33:36;5.55;;;2.22;;
40939;SDS011;26666;50.156;7.700;2022-12-07T02:38:47;8.27;;;3.15;;
40939;SDS011;26666;50.156;7.700;2022-12-07T02:43:57;8.50;;;2.80;;
40939;SDS011;26666;50.156;7.700;2022-12-07T02:49:06;7.85;;;3.45;;
40939;SDS011;26666;50.156;7.700;2022-12-07T02:54:12;4.60;;;1.92;;
40939;SDS011;26666;50.156;7.700;2022-12-07T03:20:48;7.53;;;3.17;;
40939;SDS011;26666;50.156;7.700;2022-12-07T03:25:55;8.27;;;3.33;;
40939;SDS011;26666;50.156;7.700;2022-12-07T03:31:02;12.10;;;3.08;;
40939;SDS011;26666;50.156;7.700;2022-12-07T03:36:19;9.25;;;2.90;;
40939;SDS011;26666;50.156;7.700;2022-12-07T03:41:31;9.05;;;3.03;;
40939;SDS011;26666;50.156;7.700;2022-12-07T03:57:26;6.40;;;3.00;;
40939;SDS011;26666;50.156;7.700;2022-12-07T04:02:31;8.20;;;2.67;;
40939;SDS011;26666;50.156;7.700;2022-12-07T04:07:34;10.55;;;2.55;;
40939;SDS011;26666;50.156;7.700;2022-12-07T04:12:35;8.15;;;3.08;;
40939;SDS011;26666;50.156;7.700;2022-12-07T04:17:37;8.57;;;3.38;;
40939;SDS011;26666;50.156;7.700;2022-12-07T04:22:39;7.85;;;2.90;;
40939;SDS011;26666;50.156;7.700;2022-12-07T04:27:40;6.70;;;2.78;;
40939;SDS011;26666;50.156;7.700;2022-12-07T04:32:42;7.75;;;3.05;;
40939;SDS011;26666;50.156;7.700;2022-12-07T04:37:43;4.60;;;2.25;;
40939;SDS011;26666;50.156;7.700;2022-12-07T04:42:45;9.27;;;2.53;;
40939;SDS011;26666;50.156;7.700;2022-12-07T04:47:47;6.75;;;2.58;;
40939;SDS011;26666;50.156;7.700;2022-12-07T04:52:48;4.65;;;2.10;;
40939;SDS011;26666;50.156;7.700;2022-12-07T04:57:50;7.80;;;3.03;;
40939;SDS011;26666;50.156;7.700;2022-12-07T05:02:51;6.35;;;2.80;;
40939;SDS011;26666;50.156;7.700;2022-12-07T05:07:53;5.10;;;2.45;;
40939;SDS011;26666;50.156;7.700;2022-12-07T05:12:55;5.47;;;2.00;;
40939;SDS011;26666;50.156;7.700;2022-12-07T05:17:57;6.75;;;2.58;;
40939;SDS011;26666;50.156;7.700;2022-12-07T05:22:58;6.75;;;2.80;;
40939;SDS011;26666;50.156;7.700;2022-12-07T05:28:00;10.30;;;2.75;;
40939;SDS011;26666;50.156;7.700;2022-12-07T05:33:02;7.55;;;3.30;;
40939;SDS011;26666;50.156;7.700;2022-12-07T05:38:04;8.80;;;2.90;;
40939;SDS011;26666;50.156;7.700;2022-12-07T05:43:05;7.57;;;3.60;;
40939;SDS011;26666;50.156;7.700;2022-12-07T05:48:07;4.95;;;2.63;;
40939;SDS011;26666;50.156;7.700;2022-12-07T05:53:08;7.03;;;3.08;;
40939;SDS011;26666;50.156;7.700;2022-12-07T05:58:10;8.00;;;2.20;;
40939;SDS011;26666;50.156;7.700;2022-12-07T06:03:12;5.30;;;2.60;;
40939;SDS011;26666;50.156;7.700;2022-12-07T06:08:14;5.35;;;2.47;;
40939;SDS011;26666;50.156;7.700;2022-12-07T06:13:18;5.00;;;2.20;;
40939;SDS011;26666;50.156;7.700;2022-12-07T06:18:20;6.07;;;2.33;;
40939;SDS011;26666;50.156;7.700;2022-12-07T06:23:21;6.13;;;2.92;;
40939;SDS011;26666;50.156;7.700;2022-12-07T06:28:23;5.10;;;1.88;;
40939;SDS011;26666;50.156;7.700;2022-12-07T06:33:24;6.75;;;2.80;;
40939;SDS011;26666;50.156;7.700;2022-12-07T06:38:26;4.93;;;2.00;;
40939;SDS011;26666;50.156;7.700;2022-12-07T06:43:28;8.52;;;2.97;;
40939;SDS011;26666;50.156;7.700;2022-12-07T06:48:29;7.20;;;2.65;;
40939;SDS011;26666;50.156;7.700;2022-12-07T06:53:31;6.28;;;2.72;;
40939;SDS011;26666;50.156;7.700;2022-12-07T06:58:32;7.55;;;2.22;;
40939;SDS011;26666;50.156;7.700;2022-12-07T07:03:34;8.02;;;2.67;;
40939;SDS011;26666;50.156;7.700;2022-12-07T07:08:36;8.48;;;3.70;;
40939;SDS011;26666;50.156;7.700;2022-12-07T07:13:38;8.05;;;2.78;;
40939;SDS011;26666;50.156;7.700;2022-12-07T07:18:40;9.85;;;2.20;;
40939;SDS011;26666;50.156;7.700;2022-12-07T07:23:41;4.82;;;1.80;;
40939;SDS011;26666;50.156;7.700;2022-12-07T07:28:43;4.53;;;2.35;;
40939;SDS011;26666;50.156;7.700;2022-12-07T07:33:45;3.13;;;1.85;;
40939;SDS011;26666;50.156;7.700;2022-12-07T07:38:47;5.53;;;2.25;;
40939;SDS011;26666;50.156;7.700;2022-12-07T07:43:48;3.95;;;1.88;;
40939;SDS011;26666;50.156;7.700;2022-12-07T07:48:50;5.65;;;1.95;;
40939;SDS011;26666;50.156;7.700;2022-12-07T07:53:53;7.53;;;3.30;;
40939;SDS011;26666;50.156;7.700;2022-12-07T07:58:55;8.10;;;3.15;;
40939;SDS011;26666;50.156;7.700;2022-12-07T08:03:56;11.52;;;2.63;;
40939;SDS011;26666;50.156;7.700;2022-12-07T08:08:58;10.07;;;3.28;;
40939;SDS011;26666;50.156;7.700;2022-12-07T08:14:00;6.60;;;2.35;;
40939;SDS011;26666;50.156;7.700;2022-12-07T08:19:01;7.82;;;2.05;;
40939;SDS011;26666;50.156;7.700;2022-12-07T08:24:06;4.50;;;1.80;;
40939;SDS011;26666;50.156;7.700;2022-12-07T08:29:08;6.47;;;2.03;;
40939;SDS011;26666;50.156;7.700;2022-12-07T08:34:11;5.07;;;3.78;;
40939;SDS011;26666;50.156;7.700;2022-12-07T08:39:13;8.20;;;4.03;;
40939;SDS011;26666;50.156;7.700;2022-12-07T08:44:32;3.15;;;1.80;;
40939;SDS011;26666;50.156;7.700;2022-12-07T08:49:37;7.40;;;2.42;;
40939;SDS011;26666;50.156;7.700;2022-12-07T08:54:44;6.88;;;2.13;;
40939;SDS011;26666;50.156;7.700;2022-12-07T08:59:46;5.18;;;1.90;;
40939;SDS011;26666;50.156;7.700;2022-12-07T09:04:47;4.40;;;2.28;;
40939;SDS011;26666;50.156;7.700;2022-12-07T09:09:49;7.55;;;1.73;;
40939;SDS011;26666;50.156;7.700;2022-12-07T09:14:50;10.80;;;1.65;;
40939;SDS011;26666;50.156;7.700;2022-12-07T09:19:52;3.35;;;1.23;;
40939;SDS011;26666;50.156;7.700;2022-12-07T09:24:53;5.95;;;0.98;;
40939;SDS011;26666;50.156;7.700;2022-12-07T09:29:55;2.13;;;0.90;;
40939;SDS011;26666;50.156;7.700;2022-12-07T09:34:56;4.43;;;0.90;;
40939;SDS011;26666;50.156;7.700;2022-12-07T09:39:58;2.35;;;0.98;;
40939;SDS011;26666;50.156;7.700;2022-12-07T09:44:59;4.35;;;1.30;;
40939;SDS011;26666;50.156;7.700;2022-12-07T09:50:03;1.48;;;0.65;;
40939;SDS011;26666;50.156;7.700;2022-12-07T09:55:16;2.72;;;0.50;;
40939;SDS011;26666;50.156;7.700;2022-12-07T10:00:23;4.07;;;0.95;;
40939;SDS011;26666;50.156;7.700;2022-12-07T10:05:30;2.90;;;0.60;;
40939;SDS011;26666;50.156;7.700;2022-12-07T10:10:35;2.10;;;0.90;;
40939;SDS011;26666;50.156;7.700;2022-12-07T10:15:54;1.20;;;0.75;;
40939;SDS011;26666;50.156;7.700;2022-12-07T10:26:19;2.50;;;0.93;;
40939;SDS011;26666;50.156;7.700;2022-12-07T10:31:21;2.30;;;0.77;;
40939;SDS011;26666;50.156;7.700;2022-12-07T10:41:35;2.47;;;0.38;;
40939;SDS011;26666;50.156;7.700;2022-12-07T10:47:01;3.92;;;0.80;;
40939;SDS011;26666;50.156;7.700;2022-12-07T10:52:09;6.05;;;1.73;;
40939;SDS011;26666;50.156;7.700;2022-12-07T11:07:51;1.10;;;0.70;;
40939;SDS011;26666;50.156;7.700;2022-12-07T11:13:19;1.58;;;0.82;;
40939;SDS011;26666;50.156;7.700;2022-12-07T11:18:39;1.27;;;0.73;;
40939;SDS011;26666;50.156;7.700;2022-12-07T11:24:12;0.50;;;0.50;;
40939;SDS011;26666;50.156;7.700;2022-12-07T11:44:53;2.75;;;0.40;;
40939;SDS011;26666;50.156;7.700;2022-12-07T11:55:18;2.45;;;0.57;;
40939;SDS011;26666;50.156;7.700;2022-12-07T12:00:27;2.72;;;0.55;;
40939;SDS011;26666;50.156;7.700;2022-12-07T12:05:29;2.92;;;0.40;;
40939;SDS011;26666;50.156;7.700;2022-12-07T12:10:54;5.47;;;1.35;;
40939;SDS011;26666;50.156;7.700;2022-12-07T12:21:13;6.15;;;0.90;;
40939;SDS011;26666;50.156;7.700;2022-12-07T12:26:21;1.02;;;0.52;;
40939;SDS011;26666;50.156;7.700;2022-12-07T12:46:37;4.90;;;1.00;;
40939;SDS011;26666;50.156;7.700;2022-12-07T12:57:01;4.22;;;0.73;;
40939;SDS011;26666;50.156;7.700;2022-12-07T13:12:59;3.45;;;0.85;;
40939;SDS011;26666;50.156;7.700;2022-12-07T13:23:25;10.25;;;1.10;;
40939;SDS011;26666;50.156;7.700;2022-12-07T13:39:48;1.15;;;0.40;;
40939;SDS011;26666;50.156;7.700;2022-12-07T13:44:52;5.68;;;0.82;;
40939;SDS011;26666;50.156;7.700;2022-12-07T13:49:55;1.83;;;0.43;;
40939;SDS011;26666;50.156;7.700;2022-12-07T14:00:06;3.63;;;0.50;;
40939;SDS011;26666;50.156;7.700;2022-12-07T14:05:27;4.97;;;0.47;;
40939;SDS011;26666;50.156;7.700;2022-12-07T14:10:30;2.40;;;0.82;;
40939;SDS011;26666;50.156;7.700;2022-12-07T14:15:36;5.45;;;0.88;;
40939;SDS011;26666;50.156;7.700;2022-12-07T14:20:39;2.22;;;0.82;;
40939;SDS011;26666;50.156;7.700;2022-12-07T14:25:46;1.55;;;0.60;;
40939;SDS011;26666;50.156;7.700;2022-12-07T14:30:51;1.88;;;0.75;;
40939;SDS011;26666;50.156;7.700;2022-12-07T14:35:53;6.43;;;1.08;;
40939;SDS011;26666;50.156;7.700;2022-12-07T14:40:55;4.28;;;0.70;;
40939;SDS011;26666;50.156;7.700;2022-12-07T14:45:57;0.85;;;0.10;;
40939;SDS011;26666;50.156;7.700;2022-12-07T14:50:59;5.88;;;1.23;;
40939;SDS011;26666;50.156;7.700;2022-12-07T14:56:20;9.55;;;0.77;;
40939;SDS011;26666;50.156;7.700;2022-12-07T15:01:22;3.95;;;0.52;;
40939;SDS011;26666;50.156;7.700;2022-12-07T15:06:23;5.07;;;0.43;;
40939;SDS011;26666;50.156;7.700;2022-12-07T15:11:25;9.32;;;0.50;;
40939;SDS011;26666;50.156;7.700;2022-12-07T15:16:27;0.65;;;0.30;;
40939;SDS011;26666;50.156;7.700;2022-12-07T15:21:41;1.05;;;0.20;;
40939;SDS011;26666;50.156;7.700;2022-12-07T15:26:43;4.00;;;0.47;;
40939;SDS011;26666;50.156;7.700;2022-12-07T15:31:44;0.35;;;0.32;;
40939;SDS011;26666;50.156;7.700;2022-12-07T15:36:57;1.73;;;0.00;;
40939;SDS011;26666;50.156;7.700;2022-12-07T15:41:59;0.28;;;0.10;;
40939;SDS011;26666;50.156;7.700;2022-12-07T15:47:00;0.20;;;0.00;;
40939;SDS011;26666;50.156;7.700;2022-12-07T15:52:02;0.77;;;0.20;;
40939;SDS011;26666;50.156;7.700;2022-12-07T15:57:03;1.40;;;0.10;;
40939;SDS011;26666;50.156;7.700;2022-12-07T16:02:05;4.30;;;0.57;;
40939;SDS011;26666;50.156;7.700;2022-12-07T16:07:07;6.30;;;0.30;;
40939;SDS011;26666;50.156;7.700;2022-12-07T16:12:09;0.82;;;0.35;;
40939;SDS011;26666;50.156;7.700;2022-12-07T16:17:11;1.58;;;0.45;;
40939;SDS011;26666;50.156;7.700;2022-12-07T16:22:13;1.95;;;0.28;;
40939;SDS011;26666;50.156;7.700;2022-12-07T16:27:15;0.77;;;0.38;;
40939;SDS011;26666;50.156;7.700;2022-12-07T16:32:16;1.65;;;0.40;;
40939;SDS011;26666;50.156;7.700;2022-12-07T16:37:18;2.75;;;0.38;;
40939;SDS011;26666;50.156;7.700;2022-12-07T16:42:19;0.90;;;0.32;;
40939;SDS011;26666;50.156;7.700;2022-12-07T16:47:21;9.48;;;1.33;;
40939;SDS011;26666;50.156;7.700;2022-12-07T16:52:22;11.40;;;1.60;;
40939;SDS011;26666;50.156;7.700;2022-12-07T16:57:24;3.35;;;1.17;;
40939;SDS011;26666;50.156;7.700;2022-12-07T17:02:25;9.40;;;1.40;;
40939;SDS011;26666;50.156;7.700;2022-12-07T17:07:27;4.47;;;0.60;;
40939;SDS011;26666;50.156;7.700;2022-12-07T17:12:28;8.77;;;1.33;;
40939;SDS011;26666;50.156;7.700;2022-12-07T17:17:30;3.85;;;1.30;;
40939;SDS011;26666;50.156;7.700;2022-12-07T17:22:31;6.55;;;2.22;;
40939;SDS011;26666;50.156;7.700;2022-12-07T17:27:33;13.13;;;4.35;;
40939;SDS011;26666;50.156;7.700;2022-12-07T17:32:34;6.45;;;2.83;;
40939;SDS011;26666;50.156;7.700;2022-12-07T17:37:36;19.98;;;1.60;;
40939;SDS011;26666;50.156;7.700;2022-12-07T17:42:37;5.25;;;1.40;;
40939;SDS011;26666;50.156;7.700;2022-12-07T17:47:39;5.30;;;1.95;;
40939;SDS011;26666;50.156;7.700;2022-12-07T17:52:40;5.20;;;1.65;;
40939;SDS011;26666;50.156;7.700;2022-12-07T17:57:42;5.57;;;0.98;;
40939;SDS011;26666;50.156;7.700;2022-12-07T18:02:43;2.33;;;0.95;;
40939;SDS011;26666;50.156;7.700;2022-12-07T18:07:45;3.35;;;1.40;;
40939;SDS011;26666;50.156;7.700;2022-12-07T18:12:47;3.50;;;0.50;;
40939;SDS011;26666;50.156;7.700;2022-12-07T18:17:52;2.67;;;0.80;;
40939;SDS011;26666;50.156;7.700;2022-12-07T18:22:54;7.80;;;1.25;;
40939;SDS011;26666;50.156;7.700;2022-12-07T18:27:55;2.40;;;0.77;;
40939;SDS011;26666;50.156;7.700;2022-12-07T18:32:57;1.63;;;0.80;;
40939;SDS011;26666;50.156;7.700;2022-12-07T18:37:58;3.70;;;0.88;;
40939;SDS011;26666;50.156;7.700;2022-12-07T18:43:00;4.20;;;0.35;;
40939;SDS011;26666;50.156;7.700;2022-12-07T18:48:02;2.78;;;0.30;;
40939;SDS011;26666;50.156;7.700;2022-12-07T18:53:04;4.88;;;1.02;;
40939;SDS011;26666;50.156;7.700;2022-12-07T18:58:06;6.50;;;0.50;;
40939;SDS011;26666;50.156;7.700;2022-12-07T19:03:08;4.00;;;0.57;;
40939;SDS011;26666;50.156;7.700;2022-12-07T19:08:09;14.77;;;1.67;;
40939;SDS011;26666;50.156;7.700;2022-12-07T19:13:11;9.57;;;1.38;;
40939;SDS011;26666;50.156;7.700;2022-12-07T19:18:12;9.50;;;2.78;;
40939;SDS011;26666;50.156;7.700;2022-12-07T19:23:14;5.20;;;1.10;;
40939;SDS011;26666;50.156;7.700;2022-12-07T19:28:15;14.98;;;4.68;;
40939;SDS011;26666;50.156;7.700;2022-12-07T19:33:17;3.53;;;1.92;;
40939;SDS011;26666;50.156;7.700;2022-12-07T19:38:18;2.58;;;1.17;;
40939;SDS011;26666;50.156;7.700;2022-12-07T19:43:19;2.20;;;0.77;;
40939;SDS011;26666;50.156;7.700;2022-12-07T19:48:21;4.88;;;2.08;;
40939;SDS011;26666;50.156;7.700;2022-12-07T19:53:23;3.97;;;1.83;;
40939;SDS011;26666;50.156;7.700;2022-12-07T19:58:24;9.35;;;2.28;;
40939;SDS011;26666;50.156;7.700;2022-12-07T20:03:26;2.97;;;1.38;;
40939;SDS011;26666;50.156;7.700;2022-12-07T20:08:27;2.15;;;1.35;;
40939;SDS011;26666;50.156;7.700;2022-12-07T20:13:29;7.13;;;2.60;;
40939;SDS011;26666;50.156;7.700;2022-12-07T20:18:30;3.80;;;2.45;;
40939;SDS011;26666;50.156;7.700;2022-12-07T20:23:32;4.78;;;2.25;;
40939;SDS011;26666;50.156;7.700;2022-12-07T20:28:33;2.92;;;1.17;;
40939;SDS011;26666;50.156;7.700;2022-12-07T20:33:35;2.53;;;0.68;;
40939;SDS011;26666;50.156;7.700;2022-12-07T20:38:36;1.83;;;1.02;;
40939;SDS011;26666;50.156;7.700;2022-12-07T20:43:38;3.35;;;1.00;;
40939;SDS011;26666;50.156;7.700;2022-12-07T20:48:39;2.95;;;1.77;;
40939;SDS011;26666;50.156;7.700;2022-12-07T20:53:41;9.07;;;1.85;;
40939;SDS011;26666;50.156;7.700;2022-12-07T20:58:42;5.85;;;1.80;;
40939;SDS011;26666;50.156;7.700;2022-12-07T21:03:44;5.80;;;0.82;;
40939;SDS011;26666;50.156;7.700;2022-12-07T21:08:46;2.60;;;1.02;;
40939;SDS011;26666;50.156;7.700;2022-12-07T21:13:49;2.55;;;1.23;;
40939;SDS011;26666;50.156;7.700;2022-12-07T21:18:51;4.30;;;1.23;;
40939;SDS011;26666;50.156;7.700;2022-12-07T21:23:55;2.22;;;0.68;;
40939;SDS011;26666;50.156;7.700;2022-12-07T21:29:03;2.80;;;0.85;;
40939;SDS011;26666;50.156;7.700;2022-12-07T21:34:06;3.85;;;1.23;;
40939;SDS011;26666;50.156;7.700;2022-12-07T21:39:08;2.03;;;0.85;;
40939;SDS011;26666;50.156;7.700;2022-12-07T21:44:09;3.58;;;1.45;;
40939;SDS011;26666;50.156;7.700;2022-12-07T21:49:11;6.80;;;1.02;;
40939;SDS011;26666;50.156;7.700;2022-12-07T21:54:14;9.00;;;1.00;;
40939;SDS011;26666;50.156;7.700;2022-12-07T21:59:15;8.45;;;1.10;;
40939;SDS011;26666;50.156;7.700;2022-12-07T22:04:18;7.07;;;1.02;;
40939;SDS011;26666;50.156;7.700;2022-12-07T22:09:24;3.20;;;0.90;;
40939;SDS011;26666;50.156;7.700;2022-12-07T22:14:26;2.72;;;1.10;;
40939;SDS011;26666;50.156;7.700;2022-12-07T22:19:27;4.05;;;1.10;;
40939;SDS011;26666;50.156;7.700;2022-12-07T22:24:29;4.38;;;1.42;;
40939;SDS011;26666;50.156;7.700;2022-12-07T22:29:30;3.72;;;0.85;;
40939;SDS011;26666;50.156;7.700;2022-12-07T22:34:32;3.75;;;1.25;;
40939;SDS011;26666;50.156;7.700;2022-12-07T22:39:33;4.20;;;1.42;;
40939;SDS011;26666;50.156;7.700;2022-12-07T22:44:35;4.03;;;1.27;;
40939;SDS011;26666;50.156;7.700;2022-12-07T22:49:36;4.45;;;2.00;;
40939;SDS011;26666;50.156;7.700;2022-12-07T22:54:38;6.47;;;1.17;;
40939;SDS011;26666;50.156;7.700;2022-12-07T22:59:39;2.13;;;0.98;;
40939;SDS011;26666;50.156;7.700;2022-12-07T23:04:42;10.77;;;1.95;;
40939;SDS011;26666;50.156;7.700;2022-12-07T23:09:43;6.78;;;1.38;;
40939;SDS011;26666;50.156;7.700;2022-12-07T23:14:45;4.53;;;1.67;;
40939;SDS011;26666;50.156;7.700;2022-12-07T23:19:46;3.35;;;1.13;;
40939;SDS011;26666;50.156;7.700;2022-12-07T23:24:55;6.30;;;1.60;;
40939;SDS011;26666;50.156;7.700;2022-12-07T23:29:57;3.95;;;1.75;;
40939;SDS011;26666;50.156;7.700;2022-12-07T23:34:58;4.65;;;1.90;;
40939;SDS011;26666;50.156;7.700;2022-12-07T23:40:00;6.53;;;2.40;;
40939;SDS011;26666;50.156;7.700;2022-12-07T23:45:01;1.98;;;1.00;;
40939;SDS011;26666;50.156;7.700;2022-12-07T23:50:04;3.10;;;1.08;;
40939;SDS011;26666;50.156;7.700;2022-12-07T23:55:06;1.48;;;0.70;;
